Main page
METAR-TAF:

METAR-TAF

Airports :

Gatwick Airport

London-Gatwick, England

latitude: 51-09N, longitude: 000-11W, elevation: 62 m

Current weather observation

The report was made 26 minutes ago, at 15:50 UTC
Wind 11 kt from the Northwest
Temperature 4°C
Humidity 56%
Pressure 1015 hPa
Visibility 10 km or more
no clouds below 1500 m and no cumulonimbus

METAR: EGKK 171550Z 32011KT CAVOK 04/M04 Q1015

Time: 16:16 (16:16 UTC)

Forecast

The report was made 5 hours and 19 minutes ago, at 10:57 UTC
Forecast valid from 17 at 12 UTC to 18 at 18 UTC
Wind 12 kt from the Northwest
Visibility 10 km or more
Few clouds at a height of 4500 ft
Becoming
from 17 at 20 UTC to 17 at 23 UTC
Wind 3 kt from variable directions
Visibility: 8000 m
Probability 30%
from 18 at 03 UTC to 18 at 10 UTC
Visibility: 4000 m
mist
Becoming
from 18 at 10 UTC to 18 at 12 UTC
Wind 10 kt from the Southeast
Visibility 10 km or more

TAF: EGKK 171057Z 1712/1818 32012KT 9999 FEW045 BECMG 1720/1723 VRB03KT 8000 PROB30 1803/1810 4000 BR BECMG 1810/1812 14010KT 9999

Weather observations and forecasts of more than 4000 airports (METAR and TAF reports).

The available stations are represented by yellow and red dots on the map.

Hover mouse over dot to see the name of the station.

Then click to see weather observations and forecasts.

To change the map : click on the green buttons with a black cross to zoom in, on the green button with a dash to zoom out, or on the green arrows for adjacent maps.


METAR-TAF: